sensor_id;sensor_type;location;lat;lon;timestamp;pressure;altitude;pressure_sealevel;temperature;humidity
59545;BME280;45368;55.002;-1.592;2022-12-28T00:01:21;99347.63;;;6.97;60.47
59545;BME280;45368;55.002;-1.592;2022-12-28T00:03:48;99357.42;;;6.61;61.27
59545;BME280;45368;55.002;-1.592;2022-12-28T00:06:17;99359.43;;;6.85;60.19
59545;BME280;45368;55.002;-1.592;2022-12-28T00:08:45;99342.96;;;7.33;59.32
59545;BME280;45368;55.002;-1.592;2022-12-28T00:11:14;99341.73;;;7.41;59.21
59545;BME280;45368;55.002;-1.592;2022-12-28T00:13:42;99338.67;;;6.24;61.44
59545;BME280;45368;55.002;-1.592;2022-12-28T00:16:19;99331.80;;;6.86;60.05
59545;BME280;45368;55.002;-1.592;2022-12-28T00:18:47;99341.40;;;6.29;60.79
59545;BME280;45368;55.002;-1.592;2022-12-28T00:21:14;99347.51;;;6.28;61.58
59545;BME280;45368;55.002;-1.592;2022-12-28T00:23:41;99345.14;;;5.81;63.20
59545;BME280;45368;55.002;-1.592;2022-12-28T00:26:09;99343.48;;;6.30;61.76
59545;BME280;45368;55.002;-1.592;2022-12-28T00:28:37;99349.20;;;5.92;62.92
59545;BME280;45368;55.002;-1.592;2022-12-28T00:31:05;99347.95;;;5.81;63.03
59545;BME280;45368;55.002;-1.592;2022-12-28T00:33:33;99337.86;;;5.98;62.78
59545;BME280;45368;55.002;-1.592;2022-12-28T00:36:01;99338.37;;;6.40;61.88
59545;BME280;45368;55.002;-1.592;2022-12-28T00:38:29;99328.01;;;6.68;60.60
59545;BME280;45368;55.002;-1.592;2022-12-28T00:40:57;99329.31;;;6.58;60.73
59545;BME280;45368;55.002;-1.592;2022-12-28T00:43:24;99329.83;;;6.50;61.21
59545;BME280;45368;55.002;-1.592;2022-12-28T00:45:52;99330.54;;;6.57;61.54
59545;BME280;45368;55.002;-1.592;2022-12-28T00:48:19;99330.72;;;6.88;60.73
59545;BME280;45368;55.002;-1.592;2022-12-28T00:50:46;99323.83;;;6.84;60.88
59545;BME280;45368;55.002;-1.592;2022-12-28T00:53:14;99323.98;;;6.92;60.45
59545;BME280;45368;55.002;-1.592;2022-12-28T00:55:41;99312.41;;;6.59;61.16
59545;BME280;45368;55.002;-1.592;2022-12-28T00:58:09;99301.41;;;6.98;60.32
59545;BME280;45368;55.002;-1.592;2022-12-28T01:00:37;99294.44;;;6.89;60.38
59545;BME280;45368;55.002;-1.592;2022-12-28T01:03:04;99300.74;;;6.47;60.85
59545;BME280;45368;55.002;-1.592;2022-12-28T01:05:31;99300.14;;;7.40;59.29
59545;BME280;45368;55.002;-1.592;2022-12-28T01:07:59;99302.52;;;7.12;59.41
59545;BME280;45368;55.002;-1.592;2022-12-28T01:10:26;99306.72;;;6.98;59.00
59545;BME280;45368;55.002;-1.592;2022-12-28T01:12:53;99311.26;;;6.73;60.11
59545;BME280;45368;55.002;-1.592;2022-12-28T01:15:20;99317.05;;;6.07;61.33
59545;BME280;45368;55.002;-1.592;2022-12-28T01:17:48;99314.15;;;7.11;59.48
59545;BME280;45368;55.002;-1.592;2022-12-28T01:20:15;99310.66;;;6.83;58.72
59545;BME280;45368;55.002;-1.592;2022-12-28T01:22:42;99306.54;;;7.83;57.59
59545;BME280;45368;55.002;-1.592;2022-12-28T01:25:09;99300.67;;;6.70;60.03
59545;BME280;45368;55.002;-1.592;2022-12-28T01:27:36;99303.17;;;7.10;59.81
59545;BME280;45368;55.002;-1.592;2022-12-28T01:30:03;99298.13;;;6.97;59.94
59545;BME280;45368;55.002;-1.592;2022-12-28T01:32:31;99298.56;;;6.74;60.57
59545;BME280;45368;55.002;-1.592;2022-12-28T01:34:57;99304.96;;;6.77;60.90
59545;BME280;45368;55.002;-1.592;2022-12-28T01:37:25;99301.47;;;6.73;60.84
59545;BME280;45368;55.002;-1.592;2022-12-28T01:39:52;99298.24;;;6.85;61.60
59545;BME280;45368;55.002;-1.592;2022-12-28T01:42:20;99296.35;;;6.88;61.67
59545;BME280;45368;55.002;-1.592;2022-12-28T01:44:54;99296.16;;;6.04;63.92
59545;BME280;45368;55.002;-1.592;2022-12-28T01:47:24;99300.18;;;6.51;63.79
59545;BME280;45368;55.002;-1.592;2022-12-28T01:49:59;99298.31;;;6.28;63.90
59545;BME280;45368;55.002;-1.592;2022-12-28T01:52:32;99296.36;;;6.29;63.57
59545;BME280;45368;55.002;-1.592;2022-12-28T01:55:05;99291.31;;;6.92;62.05
59545;BME280;45368;55.002;-1.592;2022-12-28T01:57:40;99299.75;;;6.18;63.87
59545;BME280;45368;55.002;-1.592;2022-12-28T02:00:11;99298.60;;;6.24;64.39
59545;BME280;45368;55.002;-1.592;2022-12-28T02:02:43;99288.32;;;6.89;61.88
59545;BME280;45368;55.002;-1.592;2022-12-28T02:05:12;99291.53;;;6.73;62.81
59545;BME280;45368;55.002;-1.592;2022-12-28T02:07:43;99279.49;;;6.88;62.23
59545;BME280;45368;55.002;-1.592;2022-12-28T02:10:14;99287.38;;;6.62;62.61
59545;BME280;45368;55.002;-1.592;2022-12-28T02:12:42;99288.21;;;6.23;64.07
59545;BME280;45368;55.002;-1.592;2022-12-28T02:15:10;99283.81;;;7.12;62.27
59545;BME280;45368;55.002;-1.592;2022-12-28T02:17:38;99275.09;;;6.82;62.10
59545;BME280;45368;55.002;-1.592;2022-12-28T02:20:06;99289.82;;;5.97;63.67
59545;BME280;45368;55.002;-1.592;2022-12-28T02:23:52;99288.10;;;6.30;63.48
59545;BME280;45368;55.002;-1.592;2022-12-28T02:26:46;99281.61;;;6.96;62.44
59545;BME280;45368;55.002;-1.592;2022-12-28T02:29:29;99287.47;;;7.46;60.44
59545;BME280;45368;55.002;-1.592;2022-12-28T02:32:09;99292.17;;;7.38;60.53
59545;BME280;45368;55.002;-1.592;2022-12-28T02:34:43;99297.32;;;7.53;60.37
59545;BME280;45368;55.002;-1.592;2022-12-28T02:37:17;99298.94;;;7.56;59.91
59545;BME280;45368;55.002;-1.592;2022-12-28T02:39:51;99307.70;;;7.12;61.13
59545;BME280;45368;55.002;-1.592;2022-12-28T02:42:20;99299.34;;;7.82;58.95
59545;BME280;45368;55.002;-1.592;2022-12-28T02:44:48;99301.24;;;8.36;57.61
59545;BME280;45368;55.002;-1.592;2022-12-28T02:47:16;99300.45;;;8.18;57.41
59545;BME280;45368;55.002;-1.592;2022-12-28T02:49:43;99301.65;;;8.88;56.09
59545;BME280;45368;55.002;-1.592;2022-12-28T02:52:18;99293.39;;;8.61;56.81
59545;BME280;45368;55.002;-1.592;2022-12-28T02:55:13;99297.68;;;8.19;57.60
59545;BME280;45368;55.002;-1.592;2022-12-28T02:57:58;99302.32;;;7.88;58.38
59545;BME280;45368;55.002;-1.592;2022-12-28T03:00:31;99297.03;;;8.07;58.43
59545;BME280;45368;55.002;-1.592;2022-12-28T03:03:14;99292.06;;;7.99;58.28
59545;BME280;45368;55.002;-1.592;2022-12-28T03:05:52;99277.43;;;8.14;57.82
59545;BME280;45368;55.002;-1.592;2022-12-28T03:08:26;99273.83;;;8.28;57.33
59545;BME280;45368;55.002;-1.592;2022-12-28T03:11:01;99268.24;;;8.08;57.39
59545;BME280;45368;55.002;-1.592;2022-12-28T03:13:32;99266.86;;;7.73;58.05
59545;BME280;45368;55.002;-1.592;2022-12-28T03:16:07;99262.64;;;8.75;56.35
59545;BME280;45368;55.002;-1.592;2022-12-28T03:18:37;99274.00;;;8.41;57.35
59545;BME280;45368;55.002;-1.592;2022-12-28T03:21:09;99269.62;;;7.55;59.93
59545;BME280;45368;55.002;-1.592;2022-12-28T03:23:38;99266.09;;;8.16;57.58
59545;BME280;45368;55.002;-1.592;2022-12-28T03:26:10;99258.76;;;7.74;58.43
59545;BME280;45368;55.002;-1.592;2022-12-28T03:28:41;99249.71;;;7.87;58.28
59545;BME280;45368;55.002;-1.592;2022-12-28T03:31:13;99250.49;;;7.90;58.04
59545;BME280;45368;55.002;-1.592;2022-12-28T03:33:44;99251.38;;;7.77;59.16
59545;BME280;45368;55.002;-1.592;2022-12-28T03:36:18;99252.94;;;7.32;58.90
59545;BME280;45368;55.002;-1.592;2022-12-28T03:38:52;99252.84;;;7.23;59.99
59545;BME280;45368;55.002;-1.592;2022-12-28T03:41:27;99245.84;;;7.26;59.77
59545;BME280;45368;55.002;-1.592;2022-12-28T03:44:06;99240.14;;;7.35;59.33
59545;BME280;45368;55.002;-1.592;2022-12-28T03:46:42;99244.90;;;6.82;60.16
59545;BME280;45368;55.002;-1.592;2022-12-28T03:49:12;99242.90;;;7.22;59.43
59545;BME280;45368;55.002;-1.592;2022-12-28T03:51:40;99244.62;;;7.05;60.31
59545;BME280;45368;55.002;-1.592;2022-12-28T03:54:12;99238.68;;;6.83;60.52
59545;BME280;45368;55.002;-1.592;2022-12-28T03:56:45;99240.84;;;6.77;60.92
59545;BME280;45368;55.002;-1.592;2022-12-28T03:59:13;99235.15;;;6.79;61.11
59545;BME280;45368;55.002;-1.592;2022-12-28T04:01:41;99228.41;;;7.12;60.38
59545;BME280;45368;55.002;-1.592;2022-12-28T04:04:08;99219.44;;;6.54;60.94
59545;BME280;45368;55.002;-1.592;2022-12-28T04:06:36;99219.77;;;7.11;60.11
59545;BME280;45368;55.002;-1.592;2022-12-28T04:09:04;99224.99;;;6.86;59.80
59545;BME280;45368;55.002;-1.592;2022-12-28T04:11:31;99229.73;;;7.52;58.75
59545;BME280;45368;55.002;-1.592;2022-12-28T04:13:59;99217.30;;;6.85;60.10
59545;BME280;45368;55.002;-1.592;2022-12-28T04:16:26;99206.13;;;6.70;60.05
59545;BME280;45368;55.002;-1.592;2022-12-28T04:18:54;99208.16;;;6.48;60.43
59545;BME280;45368;55.002;-1.592;2022-12-28T04:21:21;99209.63;;;7.28;59.07
59545;BME280;45368;55.002;-1.592;2022-12-28T04:23:48;99205.44;;;7.46;58.58
59545;BME280;45368;55.002;-1.592;2022-12-28T04:26:16;99202.38;;;7.74;57.39
59545;BME280;45368;55.002;-1.592;2022-12-28T04:28:44;99211.86;;;8.09;56.13
59545;BME280;45368;55.002;-1.592;2022-12-28T04:31:13;99211.16;;;7.15;58.55
59545;BME280;45368;55.002;-1.592;2022-12-28T04:33:40;99213.58;;;7.22;58.40
59545;BME280;45368;55.002;-1.592;2022-12-28T04:36:11;99221.72;;;7.47;57.50
59545;BME280;45368;55.002;-1.592;2022-12-28T04:38:40;99223.80;;;7.28;57.39
59545;BME280;45368;55.002;-1.592;2022-12-28T04:41:08;99225.93;;;7.69;56.76
59545;BME280;45368;55.002;-1.592;2022-12-28T04:43:35;99224.53;;;7.67;54.81
59545;BME280;45368;55.002;-1.592;2022-12-28T04:46:04;99231.31;;;7.96;55.04
59545;BME280;45368;55.002;-1.592;2022-12-28T04:48:33;99234.89;;;7.83;54.69
59545;BME280;45368;55.002;-1.592;2022-12-28T04:51:06;99229.30;;;8.22;54.08
59545;BME280;45368;55.002;-1.592;2022-12-28T04:53:36;99216.74;;;7.27;56.40
59545;BME280;45368;55.002;-1.592;2022-12-28T04:56:04;99202.81;;;7.22;56.49
59545;BME280;45368;55.002;-1.592;2022-12-28T04:58:32;99186.72;;;6.59;59.07
59545;BME280;45368;55.002;-1.592;2022-12-28T05:01:02;99168.34;;;6.12;59.41
59545;BME280;45368;55.002;-1.592;2022-12-28T05:03:29;99171.98;;;5.71;60.66
59545;BME280;45368;55.002;-1.592;2022-12-28T05:05:59;99189.22;;;6.16;61.25
59545;BME280;45368;55.002;-1.592;2022-12-28T05:08:26;99204.89;;;6.29;60.15
59545;BME280;45368;55.002;-1.592;2022-12-28T05:10:53;99218.84;;;6.04;60.26
59545;BME280;45368;55.002;-1.592;2022-12-28T05:13:20;99231.52;;;5.90;60.61
59545;BME280;45368;55.002;-1.592;2022-12-28T05:15:48;99234.19;;;6.46;58.87
59545;BME280;45368;55.002;-1.592;2022-12-28T05:18:15;99223.35;;;6.13;59.09
59545;BME280;45368;55.002;-1.592;2022-12-28T05:20:42;99222.22;;;6.68;59.00
59545;BME280;45368;55.002;-1.592;2022-12-28T05:23:09;99214.95;;;6.62;58.59
59545;BME280;45368;55.002;-1.592;2022-12-28T05:25:35;99214.64;;;6.50;58.64
59545;BME280;45368;55.002;-1.592;2022-12-28T05:28:02;99204.35;;;6.53;59.11
59545;BME280;45368;55.002;-1.592;2022-12-28T05:30:30;99200.61;;;6.38;59.71
59545;BME280;45368;55.002;-1.592;2022-12-28T05:32:57;99201.90;;;6.30;60.45
59545;BME280;45368;55.002;-1.592;2022-12-28T05:35:24;99199.14;;;6.67;59.19
59545;BME280;45368;55.002;-1.592;2022-12-28T05:37:52;99192.71;;;6.60;59.29
59545;BME280;45368;55.002;-1.592;2022-12-28T05:40:19;99186.89;;;6.71;58.94
59545;BME280;45368;55.002;-1.592;2022-12-28T05:42:46;99176.01;;;7.00;58.03
59545;BME280;45368;55.002;-1.592;2022-12-28T05:45:13;99186.70;;;7.01;58.71
59545;BME280;45368;55.002;-1.592;2022-12-28T05:47:40;99202.75;;;7.32;57.56
59545;BME280;45368;55.002;-1.592;2022-12-28T05:50:07;99208.68;;;7.10;57.51
59545;BME280;45368;55.002;-1.592;2022-12-28T05:52:35;99214.19;;;7.64;55.82
59545;BME280;45368;55.002;-1.592;2022-12-28T05:55:02;99203.73;;;7.80;54.53
59545;BME280;45368;55.002;-1.592;2022-12-28T05:57:30;99190.07;;;7.18;55.44
59545;BME280;45368;55.002;-1.592;2022-12-28T05:59:57;99181.91;;;7.82;54.78
59545;BME280;45368;55.002;-1.592;2022-12-28T06:02:24;99150.09;;;8.23;53.96
59545;BME280;45368;55.002;-1.592;2022-12-28T06:04:52;99173.55;;;7.90;54.74
59545;BME280;45368;55.002;-1.592;2022-12-28T06:07:20;99169.10;;;8.50;53.54
59545;BME280;45368;55.002;-1.592;2022-12-28T06:09:48;99173.92;;;8.27;53.15
59545;BME280;45368;55.002;-1.592;2022-12-28T06:12:16;99163.32;;;9.03;52.08
59545;BME280;45368;55.002;-1.592;2022-12-28T06:14:43;99168.33;;;8.57;52.19
59545;BME280;45368;55.002;-1.592;2022-12-28T06:17:10;99156.36;;;8.85;51.59
59545;BME280;45368;55.002;-1.592;2022-12-28T06:19:37;99169.53;;;8.25;52.73
59545;BME280;45368;55.002;-1.592;2022-12-28T06:22:04;99172.35;;;8.90;51.53
59545;BME280;45368;55.002;-1.592;2022-12-28T06:24:30;99162.36;;;8.31;52.43
59545;BME280;45368;55.002;-1.592;2022-12-28T06:26:57;99157.03;;;8.55;52.28
59545;BME280;45368;55.002;-1.592;2022-12-28T06:29:24;99152.13;;;8.26;52.97
59545;BME280;45368;55.002;-1.592;2022-12-28T06:31:51;99134.46;;;8.12;53.44
59545;BME280;45368;55.002;-1.592;2022-12-28T06:34:19;99128.80;;;7.61;54.63
59545;BME280;45368;55.002;-1.592;2022-12-28T06:36:49;99134.00;;;7.68;55.51
59545;BME280;45368;55.002;-1.592;2022-12-28T06:39:16;99126.74;;;7.32;56.83
59545;BME280;45368;55.002;-1.592;2022-12-28T06:41:43;99133.85;;;6.99;57.58
59545;BME280;45368;55.002;-1.592;2022-12-28T06:44:11;99132.38;;;7.20;56.52
59545;BME280;45368;55.002;-1.592;2022-12-28T06:46:40;99134.19;;;6.17;59.16
59545;BME280;45368;55.002;-1.592;2022-12-28T06:49:07;99131.17;;;7.23;57.29
59545;BME280;45368;55.002;-1.592;2022-12-28T06:51:36;99143.28;;;7.58;55.48
59545;BME280;45368;55.002;-1.592;2022-12-28T06:54:04;99148.04;;;7.30;55.71
59545;BME280;45368;55.002;-1.592;2022-12-28T06:56:34;99133.81;;;7.71;55.12
59545;BME280;45368;55.002;-1.592;2022-12-28T06:59:01;99134.40;;;7.98;54.57
59545;BME280;45368;55.002;-1.592;2022-12-28T07:01:30;99129.14;;;7.95;54.61
59545;BME280;45368;55.002;-1.592;2022-12-28T07:03:58;99131.08;;;7.79;54.61
59545;BME280;45368;55.002;-1.592;2022-12-28T07:06:28;99134.62;;;6.73;56.06
59545;BME280;45368;55.002;-1.592;2022-12-28T07:09:00;99130.93;;;8.21;53.92
59545;BME280;45368;55.002;-1.592;2022-12-28T07:11:29;99124.88;;;8.30;52.89
59545;BME280;45368;55.002;-1.592;2022-12-28T07:13:56;99123.79;;;8.91;52.23
59545;BME280;45368;55.002;-1.592;2022-12-28T07:16:25;99107.69;;;8.64;51.91
59545;BME280;45368;55.002;-1.592;2022-12-28T07:18:53;99107.32;;;8.08;52.79
59545;BME280;45368;55.002;-1.592;2022-12-28T07:21:22;99099.99;;;8.22;52.97
59545;BME280;45368;55.002;-1.592;2022-12-28T07:23:50;99111.41;;;8.12;53.35
59545;BME280;45368;55.002;-1.592;2022-12-28T07:26:19;99120.41;;;7.16;54.89
59545;BME280;45368;55.002;-1.592;2022-12-28T07:28:49;99118.91;;;7.79;54.52
59545;BME280;45368;55.002;-1.592;2022-12-28T07:31:19;99108.92;;;8.98;52.04
59545;BME280;45368;55.002;-1.592;2022-12-28T07:33:48;99115.61;;;8.84;52.69
59545;BME280;45368;55.002;-1.592;2022-12-28T07:36:17;99104.39;;;8.71;52.31
59545;BME280;45368;55.002;-1.592;2022-12-28T07:38:45;99099.43;;;9.12;51.34
59545;BME280;45368;55.002;-1.592;2022-12-28T07:41:15;99092.65;;;9.07;51.20
59545;BME280;45368;55.002;-1.592;2022-12-28T07:43:42;99090.31;;;7.52;54.62
59545;BME280;45368;55.002;-1.592;2022-12-28T07:46:12;99082.99;;;7.36;55.72
59545;BME280;45368;55.002;-1.592;2022-12-28T07:48:40;99070.59;;;6.76;56.83
59545;BME280;45368;55.002;-1.592;2022-12-28T07:51:13;99066.90;;;7.09;56.85
59545;BME280;45368;55.002;-1.592;2022-12-28T07:53:42;99069.88;;;6.70;57.95
59545;BME280;45368;55.002;-1.592;2022-12-28T07:56:10;99069.93;;;6.75;58.00
59545;BME280;45368;55.002;-1.592;2022-12-28T07:58:38;99071.87;;;7.06;57.51
59545;BME280;45368;55.002;-1.592;2022-12-28T08:01:07;99078.16;;;6.86;58.04
59545;BME280;45368;55.002;-1.592;2022-12-28T08:03:36;99074.32;;;6.19;60.81
59545;BME280;45368;55.002;-1.592;2022-12-28T08:06:04;99063.16;;;6.27;60.10
59545;BME280;45368;55.002;-1.592;2022-12-28T08:08:34;99061.45;;;6.70;58.93
59545;BME280;45368;55.002;-1.592;2022-12-28T08:11:03;99063.22;;;6.62;59.00
59545;BME280;45368;55.002;-1.592;2022-12-28T08:13:32;99065.31;;;6.68;59.32
59545;BME280;45368;55.002;-1.592;2022-12-28T08:16:01;99066.74;;;5.64;61.65
59545;BME280;45368;55.002;-1.592;2022-12-28T08:18:28;99054.13;;;5.87;62.04
59545;BME280;45368;55.002;-1.592;2022-12-28T08:21:00;99048.82;;;4.81;65.08
59545;BME280;45368;55.002;-1.592;2022-12-28T08:23:28;99039.61;;;5.58;65.03
59545;BME280;45368;55.002;-1.592;2022-12-28T08:25:56;99033.31;;;5.29;64.94
59545;BME280;45368;55.002;-1.592;2022-12-28T08:28:23;99025.43;;;5.07;66.17
59545;BME280;45368;55.002;-1.592;2022-12-28T08:30:50;99020.69;;;5.78;63.95
59545;BME280;45368;55.002;-1.592;2022-12-28T08:33:17;99024.71;;;5.45;63.89
59545;BME280;45368;55.002;-1.592;2022-12-28T08:35:44;99024.27;;;5.48;64.07
59545;BME280;45368;55.002;-1.592;2022-12-28T08:38:11;99019.46;;;5.62;64.60
59545;BME280;45368;55.002;-1.592;2022-12-28T08:40:38;99015.72;;;6.36;63.10
59545;BME280;45368;55.002;-1.592;2022-12-28T08:43:06;99015.65;;;5.99;63.25
59545;BME280;45368;55.002;-1.592;2022-12-28T08:45:33;99013.76;;;6.29;63.31
59545;BME280;45368;55.002;-1.592;2022-12-28T08:48:00;99017.33;;;6.03;63.13
59545;BME280;45368;55.002;-1.592;2022-12-28T08:50:28;99019.25;;;5.27;66.14
59545;BME280;45368;55.002;-1.592;2022-12-28T08:52:55;99016.52;;;5.72;64.92
59545;BME280;45368;55.002;-1.592;2022-12-28T08:55:22;99006.36;;;5.35;66.08
59545;BME280;45368;55.002;-1.592;2022-12-28T08:57:49;99000.43;;;5.00;66.69
59545;BME280;45368;55.002;-1.592;2022-12-28T09:00:17;98981.84;;;5.70;65.38
59545;BME280;45368;55.002;-1.592;2022-12-28T09:02:45;98997.02;;;5.81;65.12
59545;BME280;45368;55.002;-1.592;2022-12-28T09:05:13;99001.23;;;5.85;65.03
59545;BME280;45368;55.002;-1.592;2022-12-28T09:07:40;99005.61;;;6.30;63.41
59545;BME280;45368;55.002;-1.592;2022-12-28T09:10:08;99008.36;;;6.22;64.11
59545;BME280;45368;55.002;-1.592;2022-12-28T09:12:35;99002.28;;;6.62;63.02
59545;BME280;45368;55.002;-1.592;2022-12-28T09:15:03;98992.79;;;6.20;63.03
59545;BME280;45368;55.002;-1.592;2022-12-28T09:17:30;98978.88;;;6.51;62.17
59545;BME280;45368;55.002;-1.592;2022-12-28T09:19:57;98975.21;;;5.49;65.24
59545;BME280;45368;55.002;-1.592;2022-12-28T09:22:24;98966.90;;;5.66;64.86
59545;BME280;45368;55.002;-1.592;2022-12-28T09:24:52;98957.50;;;6.19;63.72
59545;BME280;45368;55.002;-1.592;2022-12-28T09:27:19;98950.60;;;5.68;64.32
59545;BME280;45368;55.002;-1.592;2022-12-28T09:29:47;98959.55;;;6.10;64.49
59545;BME280;45368;55.002;-1.592;2022-12-28T09:32:14;98958.79;;;5.86;64.19
59545;BME280;45368;55.002;-1.592;2022-12-28T09:34:41;98953.89;;;6.65;62.05
59545;BME280;45368;55.002;-1.592;2022-12-28T09:37:08;98954.69;;;6.33;62.04
59545;BME280;45368;55.002;-1.592;2022-12-28T09:39:35;98942.27;;;5.85;63.84
59545;BME280;45368;55.002;-1.592;2022-12-28T09:42:07;98929.72;;;6.10;63.01
59545;BME280;45368;55.002;-1.592;2022-12-28T09:44:43;98922.18;;;6.78;62.43
59545;BME280;45368;55.002;-1.592;2022-12-28T09:47:17;98925.01;;;6.46;61.52
59545;BME280;45368;55.002;-1.592;2022-12-28T09:49:56;98919.03;;;6.72;61.37
59545;BME280;45368;55.002;-1.592;2022-12-28T09:52:28;98919.11;;;6.67;61.78
59545;BME280;45368;55.002;-1.592;2022-12-28T09:55:04;98915.22;;;6.97;60.56
59545;BME280;45368;55.002;-1.592;2022-12-28T09:57:36;98912.24;;;6.65;61.83
59545;BME280;45368;55.002;-1.592;2022-12-28T10:00:14;98905.38;;;6.69;62.17
59545;BME280;45368;55.002;-1.592;2022-12-28T10:02:44;98904.02;;;6.98;61.58
59545;BME280;45368;55.002;-1.592;2022-12-28T10:05:13;98900.31;;;6.58;61.84
59545;BME280;45368;55.002;-1.592;2022-12-28T10:07:41;98895.75;;;6.77;61.17
59545;BME280;45368;55.002;-1.592;2022-12-28T10:10:12;98890.72;;;7.23;59.80
59545;BME280;45368;55.002;-1.592;2022-12-28T10:12:40;98886.74;;;7.52;59.76
59545;BME280;45368;55.002;-1.592;2022-12-28T10:15:11;98878.13;;;6.14;61.57
59545;BME280;45368;55.002;-1.592;2022-12-28T10:17:39;98869.65;;;6.24;62.37
59545;BME280;45368;55.002;-1.592;2022-12-28T10:20:14;98866.39;;;5.36;66.86
59545;BME280;45368;55.002;-1.592;2022-12-28T10:22:41;98855.81;;;5.44;66.57
59545;BME280;45368;55.002;-1.592;2022-12-28T10:25:13;98850.06;;;5.40;66.54
59545;BME280;45368;55.002;-1.592;2022-12-28T10:27:42;98842.38;;;5.05;67.77
59545;BME280;45368;55.002;-1.592;2022-12-28T10:30:16;98834.49;;;5.13;66.98
59545;BME280;45368;55.002;-1.592;2022-12-28T10:32:49;98835.03;;;4.96;68.54
59545;BME280;45368;55.002;-1.592;2022-12-28T10:35:27;98828.48;;;5.51;66.80
59545;BME280;45368;55.002;-1.592;2022-12-28T10:38:00;98827.78;;;4.41;70.19
59545;BME280;45368;55.002;-1.592;2022-12-28T10:40:30;98821.15;;;4.20;71.97
59545;BME280;45368;55.002;-1.592;2022-12-28T10:42:58;98817.70;;;4.76;71.46
59545;BME280;45368;55.002;-1.592;2022-12-28T10:45:35;98815.44;;;4.37;73.64
59545;BME280;45368;55.002;-1.592;2022-12-28T10:48:08;98805.24;;;4.24;74.40
59545;BME280;45368;55.002;-1.592;2022-12-28T10:50:48;98802.11;;;3.88;75.62
59545;BME280;45368;55.002;-1.592;2022-12-28T10:53:19;98797.71;;;3.92;75.95
59545;BME280;45368;55.002;-1.592;2022-12-28T10:55:46;98789.68;;;4.13;76.36
59545;BME280;45368;55.002;-1.592;2022-12-28T10:58:18;98786.12;;;3.06;78.43
59545;BME280;45368;55.002;-1.592;2022-12-28T11:00:53;98778.14;;;3.78;77.52
59545;BME280;45368;55.002;-1.592;2022-12-28T11:03:24;98775.30;;;3.13;78.66
59545;BME280;45368;55.002;-1.592;2022-12-28T11:06:26;98770.10;;;3.20;79.16
59545;BME280;45368;55.002;-1.592;2022-12-28T11:09:09;98765.64;;;3.41;79.74
59545;BME280;45368;55.002;-1.592;2022-12-28T11:11:40;98752.03;;;3.42;78.82
59545;BME280;45368;55.002;-1.592;2022-12-28T11:14:14;98748.02;;;3.75;77.80
59545;BME280;45368;55.002;-1.592;2022-12-28T11:16:43;98734.94;;;3.79;78.13
59545;BME280;45368;55.002;-1.592;2022-12-28T11:19:11;98722.93;;;3.81;77.00
59545;BME280;45368;55.002;-1.592;2022-12-28T11:21:40;98718.01;;;3.12;78.16
59545;BME280;45368;55.002;-1.592;2022-12-28T11:24:11;98706.60;;;3.27;79.32
59545;BME280;45368;55.002;-1.592;2022-12-28T11:26:42;98691.68;;;3.58;77.46
59545;BME280;45368;55.002;-1.592;2022-12-28T11:29:11;98684.80;;;3.40;77.47
59545;BME280;45368;55.002;-1.592;2022-12-28T11:31:43;98674.73;;;3.78;77.13
59545;BME280;45368;55.002;-1.592;2022-12-28T11:34:17;98669.09;;;3.07;78.48
59545;BME280;45368;55.002;-1.592;2022-12-28T11:36:46;98656.77;;;3.44;77.24
59545;BME280;45368;55.002;-1.592;2022-12-28T11:39:31;98647.35;;;3.54;77.23
59545;BME280;45368;55.002;-1.592;2022-12-28T11:42:00;98635.75;;;3.50;77.35
59545;BME280;45368;55.002;-1.592;2022-12-28T11:45:01;98628.18;;;3.84;77.69
59545;BME280;45368;55.002;-1.592;2022-12-28T11:47:29;98616.99;;;3.82;75.76
59545;BME280;45368;55.002;-1.592;2022-12-28T11:51:15;98599.09;;;4.13;75.74
59545;BME280;45368;55.002;-1.592;2022-12-28T11:53:52;98589.30;;;4.02;75.45
59545;BME280;45368;55.002;-1.592;2022-12-28T11:56:20;98582.89;;;4.40;74.81
59545;BME280;45368;55.002;-1.592;2022-12-28T11:59:22;98569.57;;;4.08;74.45
59545;BME280;45368;55.002;-1.592;2022-12-28T12:01:52;98563.61;;;4.16;74.92
59545;BME280;45368;55.002;-1.592;2022-12-28T12:04:42;98557.16;;;4.26;76.25
59545;BME280;45368;55.002;-1.592;2022-12-28T12:07:23;98546.55;;;4.58;74.65
59545;BME280;45368;55.002;-1.592;2022-12-28T12:10:19;98540.95;;;3.81;75.83
59545;BME280;45368;55.002;-1.592;2022-12-28T12:12:49;98532.35;;;3.76;76.39
59545;BME280;45368;55.002;-1.592;2022-12-28T12:15:19;98520.42;;;3.80;76.37
59545;BME280;45368;55.002;-1.592;2022-12-28T12:17:53;98509.05;;;3.88;76.53
59545;BME280;45368;55.002;-1.592;2022-12-28T12:20:42;98500.13;;;3.57;78.97
59545;BME280;45368;55.002;-1.592;2022-12-28T12:23:20;98485.19;;;3.78;77.25
59545;BME280;45368;55.002;-1.592;2022-12-28T12:25:52;98477.30;;;3.72;78.02
59545;BME280;45368;55.002;-1.592;2022-12-28T12:28:31;98461.33;;;4.17;76.74
59545;BME280;45368;55.002;-1.592;2022-12-28T12:31:03;98447.72;;;4.39;76.00
59545;BME280;45368;55.002;-1.592;2022-12-28T12:33:36;98432.17;;;4.91;74.03
59545;BME280;45368;55.002;-1.592;2022-12-28T12:36:20;98421.27;;;5.06;73.02
59545;BME280;45368;55.002;-1.592;2022-12-28T12:39:12;98416.25;;;4.08;75.75
59545;BME280;45368;55.002;-1.592;2022-12-28T12:41:48;98404.97;;;4.28;74.66
59545;BME280;45368;55.002;-1.592;2022-12-28T12:44:27;98394.00;;;5.26;72.78
59545;BME280;45368;55.002;-1.592;2022-12-28T12:47:08;98378.68;;;5.41;72.22
59545;BME280;45368;55.002;-1.592;2022-12-28T12:49:52;98365.06;;;5.11;73.10
59545;BME280;45368;55.002;-1.592;2022-12-28T12:52:31;98350.85;;;4.86;73.81
59545;BME280;45368;55.002;-1.592;2022-12-28T12:55:14;98338.79;;;5.04;73.40
59545;BME280;45368;55.002;-1.592;2022-12-28T12:57:54;98334.52;;;5.09;72.10
59545;BME280;45368;55.002;-1.592;2022-12-28T13:00:23;98311.07;;;5.23;72.64
59545;BME280;45368;55.002;-1.592;2022-12-28T13:03:08;98308.03;;;4.99;73.06
59545;BME280;45368;55.002;-1.592;2022-12-28T13:05:44;98296.95;;;5.45;72.66
59545;BME280;45368;55.002;-1.592;2022-12-28T13:08:21;98283.00;;;5.31;71.87
59545;BME280;45368;55.002;-1.592;2022-12-28T13:10:50;98267.40;;;4.99;73.53
59545;BME280;45368;55.002;-1.592;2022-12-28T13:13:27;98259.59;;;4.97;73.46
59545;BME280;45368;55.002;-1.592;2022-12-28T13:16:00;98247.98;;;5.14;73.65
59545;BME280;45368;55.002;-1.592;2022-12-28T13:18:28;98234.80;;;5.32;72.06
59545;BME280;45368;55.002;-1.592;2022-12-28T13:20:57;98228.84;;;6.11;70.31